Time;durP1;ratioP1;P1;durP2;ratioP2;P2;SDS_P1;SDS_P2;PMS_P1;PMS_P2;Temp;Humidity;BMP_temperature;BMP_pressure;BME280_temperature;BME280_humidity;BME280_pressure;Samples;Min_cycle;Max_cycle;Signal;HPM_P1;HPM_P2
2024/02/03 00:00:30;;;;;;;;;;;8.40;1.00;;;;;;5054152;28;20307;-77
2024/02/03 00:03:00;;;;;;;;;;;8.50;1.00;;;;;;5064983;28;19909;-77
2024/02/03 00:05:30;;;;;;;;;;;8.50;1.00;;;;;;5054841;28;19916;-77
2024/02/03 00:08:06;;;;;;;;;;;8.50;1.00;;;;;;5054639;28;19909;-77
2024/02/03 00:10:48;;;;;;;;;;;8.50;1.00;;;;;;5062952;28;19959;-77
2024/02/03 00:13:14;;;;;;;;;;;8.40;1.00;;;;;;5054429;28;19913;-77
2024/02/03 00:15:42;;;;;;;;;;;8.50;1.00;;;;;;5054681;28;19909;-77
2024/02/03 00:18:08;;;;;;;;;;;8.40;1.00;;;;;;5048448;28;19920;-78
2024/02/03 00:20:33;;;;;;;;;;;8.50;1.00;;;;;;5053413;28;19908;-78
2024/02/03 00:22:59;;;;;;;;;;;8.60;1.00;;;;;;5043369;28;19920;-78
2024/02/03 00:25:24;;;;;;;;;;;8.60;1.00;;;;;;5052966;28;19919;-78
2024/02/03 00:28:00;;;;;;;;;;;8.60;1.00;;;;;;5053745;28;20580;-78
2024/02/03 00:30:30;;;;;;;;;;;8.60;1.00;;;;;;5053482;28;19971;-77
2024/02/03 00:32:56;;;;;;;;;;;8.60;1.00;;;;;;5054032;28;19920;-77
2024/02/03 00:35:24;;;;;;;;;;;8.60;1.00;;;;;;5053145;28;19912;-77
2024/02/03 00:37:54;;;;;;;;;;;8.60;1.00;;;;;;5045749;28;19959;-77
2024/02/03 00:40:30;;;;;;;;;;;8.70;1.00;;;;;;5051766;28;19967;-77
2024/02/03 00:43:14;;;;;;;;;;;8.60;1.00;;;;;;5044126;28;19909;-78
2024/02/03 00:45:42;;;;;;;;;;;8.60;1.00;;;;;;5047735;28;20004;-77
2024/02/03 00:48:30;;;;;;;;;;;8.60;1.00;;;;;;5047382;28;20292;-77
2024/02/03 00:51:00;;;;;;;;;;;8.50;1.00;;;;;;5050294;28;20007;-77
2024/02/03 00:53:36;;;;;;;;;;;8.60;1.00;;;;;;5053669;28;20296;-77
2024/02/03 00:56:12;;;;;;;;;;;8.50;1.00;;;;;;5052555;28;20292;-78
2024/02/03 00:58:38;;;;;;;;;;;8.60;1.00;;;;;;5041595;28;19921;-78
2024/02/03 01:01:18;;;;;;;;;;;8.60;1.00;;;;;;5054190;28;19913;-77
2024/02/03 01:04:00;;;;;;;;;;;8.60;1.00;;;;;;5053615;28;19913;-78
2024/02/03 01:06:30;;;;;;;;;;;8.60;1.00;;;;;;5053436;28;20038;-78
2024/02/03 01:09:17;;;;;;;;;;;8.60;1.00;;;;;;5043523;28;20007;-77
2024/02/03 01:12:00;;;;;;;;;;;8.60;1.00;;;;;;5042696;28;20353;-78
2024/02/03 01:14:30;;;;;;;;;;;8.60;1.00;;;;;;5057014;28;19917;-78
2024/02/03 01:16:56;;;;;;;;;;;8.60;1.00;;;;;;5057911;28;19909;-77
2024/02/03 01:19:22;;;;;;;;;;;8.50;1.00;;;;;;5043121;28;19960;-77
2024/02/03 01:21:47;;;;;;;;;;;8.60;1.00;;;;;;5057139;28;19913;-77
2024/02/03 01:24:30;;;;;;;;;;;8.60;1.00;;;;;;5051734;28;19967;-77
2024/02/03 01:27:00;;;;;;;;;;;8.50;1.00;;;;;;5073248;28;19951;-77
2024/02/03 01:29:30;;;;;;;;;;;8.50;1.00;;;;;;5057459;28;19964;-77
2024/02/03 01:32:00;;;;;;;;;;;8.50;1.00;;;;;;5052632;28;20004;-77
2024/02/03 01:34:30;;;;;;;;;;;8.60;1.00;;;;;;5055598;28;19920;-77
2024/02/03 01:37:00;;;;;;;;;;;8.60;1.00;;;;;;5057540;28;19962;-76
2024/02/03 01:39:30;;;;;;;;;;;8.50;1.00;;;;;;5068392;28;19913;-76
2024/02/03 01:41:56;;;;;;;;;;;8.60;1.00;;;;;;5057327;28;19909;-77
2024/02/03 01:44:33;;;;;;;;;;;8.70;1.00;;;;;;5055941;28;19912;-77
2024/02/03 01:46:59;;;;;;;;;;;8.70;1.00;;;;;;5057253;28;19939;-77
2024/02/03 01:49:31;;;;;;;;;;;8.60;1.00;;;;;;5057172;28;20361;-77
2024/02/03 01:52:00;;;;;;;;;;;8.50;1.00;;;;;;5056408;28;19913;-77
2024/02/03 01:54:27;;;;;;;;;;;8.50;1.00;;;;;;5056995;28;19909;-77
2024/02/03 01:56:56;;;;;;;;;;;8.60;1.00;;;;;;5052744;28;20322;-78
2024/02/03 01:59:27;;;;;;;;;;;8.50;1.00;;;;;;5050759;28;19959;-77
2024/02/03 02:01:56;;;;;;;;;;;8.50;1.00;;;;;;5049457;28;19948;-77
2024/02/03 02:04:24;;;;;;;;;;;8.50;1.00;;;;;;5055483;28;19913;-77
2024/02/03 02:07:01;;;;;;;;;;;8.50;1.00;;;;;;5054779;28;19920;-78
2024/02/03 02:09:30;;;;;;;;;;;8.50;1.00;;;;;;5050035;28;20356;-78
2024/02/03 02:12:00;;;;;;;;;;;8.40;1.00;;;;;;5056891;28;19920;-78
2024/02/03 02:14:30;;;;;;;;;;;8.40;1.00;;;;;;5056667;28;19909;-77
2024/02/03 02:17:00;;;;;;;;;;;8.40;1.00;;;;;;5056852;28;19915;-77
2024/02/03 02:19:26;;;;;;;;;;;8.40;1.00;;;;;;5056866;28;19909;-77
2024/02/03 02:21:52;;;;;;;;;;;8.40;1.00;;;;;;5051020;28;19917;-77
2024/02/03 02:24:18;;;;;;;;;;;8.50;1.00;;;;;;5055503;28;19957;-77
2024/02/03 02:26:54;;;;;;;;;;;8.50;1.00;;;;;;5036764;28;19909;-77
2024/02/03 02:29:20;;;;;;;;;;;8.40;1.00;;;;;;5055921;28;19913;-77
2024/02/03 02:31:45;;;;;;;;;;;9.70;1.00;;;;;;5056205;28;19913;-77
2024/02/03 02:34:12;;;;;;;;;;;8.50;1.00;;;;;;5055697;28;19909;-77
2024/02/03 02:36:43;;;;;;;;;;;8.50;1.00;;;;;;5054316;28;20265;-77
2024/02/03 02:39:14;;;;;;;;;;;8.40;1.00;;;;;;5036011;28;19913;-77
2024/02/03 02:41:39;;;;;;;;;;;8.50;1.00;;;;;;5047943;28;20015;-77
2024/02/03 02:44:06;;;;;;;;;;;8.40;1.00;;;;;;5056019;28;20400;-77
2024/02/03 02:46:42;;;;;;;;;;;8.50;1.00;;;;;;5056010;28;19916;-77
2024/02/03 02:49:30;;;;;;;;;;;8.60;1.00;;;;;;5039811;28;19921;-78
2024/02/03 02:52:00;;;;;;;;;;;8.50;1.00;;;;;;5036250;28;19913;-78
2024/02/03 02:54:30;;;;;;;;;;;8.50;1.00;;;;;;5055409;28;20381;-78
2024/02/03 02:57:00;;;;;;;;;;;8.50;1.00;;;;;;5054586;28;19915;-77
2024/02/03 02:59:48;;;;;;;;;;;8.50;1.00;;;;;;5055640;28;19954;-78
2024/02/03 03:02:24;;;;;;;;;;;8.40;1.00;;;;;;5056074;28;19909;-78
2024/02/03 03:05:00;;;;;;;;;;;8.50;1.00;;;;;;5050290;28;19913;-77
2024/02/03 03:07:30;;;;;;;;;;;8.40;1.00;;;;;;5049106;28;19913;-77
2024/02/03 03:10:00;;;;;;;;;;;8.50;1.00;;;;;;5055811;28;20268;-77
2024/02/03 03:12:26;;;;;;;;;;;8.40;1.00;;;;;;5055506;28;19974;-77
2024/02/03 03:14:52;;;;;;;;;;;8.50;1.00;;;;;;5055616;28;19917;-77
2024/02/03 03:17:30;;;;;;;;;;;8.50;1.00;;;;;;5055533;28;19913;-78
2024/02/03 03:20:00;;;;;;;;;;;8.60;1.00;;;;;;5054843;28;19921;-78
2024/02/03 03:22:30;;;;;;;;;;;8.60;1.00;;;;;;5055078;28;19912;-78
2024/02/03 03:25:00;;;;;;;;;;;8.60;1.00;;;;;;5055353;28;19917;-78
2024/02/03 03:27:26;;;;;;;;;;;8.50;1.00;;;;;;5047302;28;19913;-78
2024/02/03 03:29:51;;;;;;;;;;;8.40;1.00;;;;;;5035080;28;20029;-77
2024/02/03 03:32:17;;;;;;;;;;;8.50;1.00;;;;;;5054585;28;20336;-78
2024/02/03 03:34:54;;;;;;;;;;;8.50;1.00;;;;;;5051517;28;19913;-78
2024/02/03 03:40:23;;;;;;;;;;;8.40;1.00;;;;;;5048673;28;19920;-78
2024/02/03 03:42:49;;;;;;;;;;;8.40;1.00;;;;;;5047447;28;19913;-78
2024/02/03 03:45:18;;;;;;;;;;;8.30;1.00;;;;;;5034512;28;19914;-78
2024/02/03 03:47:48;;;;;;;;;;;8.30;1.00;;;;;;5035245;28;20333;-78
2024/02/03 03:50:30;;;;;;;;;;;8.20;1.00;;;;;;5036376;28;19921;-77
2024/02/03 03:52:56;;;;;;;;;;;8.20;1.00;;;;;;5054433;28;19920;-77
2024/02/03 03:55:30;;;;;;;;;;;8.20;1.00;;;;;;5054745;28;19909;-77
2024/02/03 03:58:12;;;;;;;;;;;8.20;1.00;;;;;;5054572;28;20360;-77
2024/02/03 04:00:48;;;;;;;;;;;;;;;;;;5040960;28;19909;-77
2024/02/03 04:03:24;;;;;;;;;;;8.20;1.00;;;;;;5054473;28;19916;-78
2024/02/03 04:05:50;;;;;;;;;;;8.10;1.00;;;;;;5054286;28;19919;-77
2024/02/03 04:08:30;;;;;;;;;;;8.10;1.00;;;;;;5054241;28;19912;-77
2024/02/03 04:11:01;;;;;;;;;;;8.20;1.00;;;;;;5054674;28;20386;-77
2024/02/03 04:13:38;;;;;;;;;;;8.20;1.00;;;;;;5041192;28;19912;-77
2024/02/03 04:16:24;;;;;;;;;;;8.20;1.00;;;;;;5053804;28;20276;-77
2024/02/03 04:19:00;;;;;;;;;;;8.10;1.00;;;;;;5054467;28;19909;-77
2024/02/03 04:21:37;;;;;;;;;;;8.10;1.00;;;;;;5049584;28;19913;-77
2024/02/03 04:24:06;;;;;;;;;;;8.00;1.00;;;;;;5046099;28;19920;-77
2024/02/03 04:26:36;;;;;;;;;;;8.00;1.00;;;;;;5054027;28;19955;-77
2024/02/03 04:29:19;;;;;;;;;;;8.10;1.00;;;;;;5037488;28;19913;-77
2024/02/03 04:31:44;;;;;;;;;;;8.10;1.00;;;;;;5048573;28;19940;-77
2024/02/03 04:34:16;;;;;;;;;;;8.00;1.00;;;;;;5053797;28;20373;-77
2024/02/03 04:37:00;;;;;;;;;;;8.10;1.00;;;;;;5051362;28;19913;-78
2024/02/03 04:39:26;;;;;;;;;;;8.10;1.00;;;;;;5051524;28;20011;-77
2024/02/03 04:41:52;;;;;;;;;;;8.20;1.00;;;;;;5053682;28;19974;-77
2024/02/03 04:44:18;;;;;;;;;;;8.20;1.00;;;;;;5052626;28;19917;-78
2024/02/03 04:47:00;;;;;;;;;;;8.20;1.00;;;;;;5053504;28;20391;-77
2024/02/03 04:49:26;;;;;;;;;;;8.10;1.00;;;;;;5051244;28;19913;-77
2024/02/03 04:51:54;;;;;;;;;;;8.10;1.00;;;;;;5053867;28;19939;-77
2024/02/03 04:54:24;;;;;;;;;;;8.10;1.00;;;;;;5040431;28;20003;-77
2024/02/03 04:57:12;;;;;;;;;;;8.00;1.00;;;;;;5048043;28;20055;-77
2024/02/03 04:59:48;;;;;;;;;;;8.00;1.00;;;;;;5045239;28;19956;-77
2024/02/03 05:02:18;;;;;;;;;;;7.90;1.00;;;;;;5054239;28;19955;-77
2024/02/03 05:04:54;;;;;;;;;;;7.90;2.50;;;;;;5041336;28;19913;-77
2024/02/03 05:07:24;;;;;;;;;;;7.80;5.30;;;;;;5053474;28;19917;-77
2024/02/03 05:10:06;;;;;;;;;;;7.90;7.00;;;;;;5053839;28;20003;-77
2024/02/03 05:12:36;;;;;;;;;;;7.90;9.40;;;;;;5040630;28;20003;-77
2024/02/03 05:15:03;;;;;;;;;;;7.90;8.50;;;;;;5053586;28;19917;-77
2024/02/03 05:17:30;;;;;;;;;;;7.80;5.90;;;;;;5053626;28;19982;-79
2024/02/03 05:19:56;;;;;;;;;;;7.80;9.10;;;;;;5047359;28;20304;-78
2024/02/03 05:22:21;;;;;;;;;;;7.80;9.70;;;;;;5053065;28;20011;-77
2024/02/03 05:24:47;;;;;;;;;;;7.90;10.60;;;;;;5052597;28;19917;-78
2024/02/03 05:27:13;;;;;;;;;;;7.90;5.30;;;;;;5051789;28;19936;-78
2024/02/03 05:29:41;;;;;;;;;;;7.90;7.90;;;;;;5052485;28;20024;-78
2024/02/03 05:32:07;;;;;;;;;;;8.00;7.90;;;;;;5053840;28;20280;-77
2024/02/03 05:34:36;;;;;;;;;;;8.00;4.30;;;;;;5050160;28;19913;-78
2024/02/03 05:37:06;;;;;;;;;;;8.00;1.90;;;;;;5049209;28;19970;-79
2024/02/03 05:39:48;;;;;;;;;;;8.10;4.60;;;;;;5051325;28;19919;-79
2024/02/03 05:42:29;;;;;;;;;;;8.00;2.50;;;;;;5053473;28;19915;-79
2024/02/03 05:45:06;;;;;;;;;;;8.00;1.00;;;;;;5051908;28;19970;-79
2024/02/03 05:47:36;;;;;;;;;;;8.00;4.10;;;;;;5051521;28;20372;-79
2024/02/03 05:50:02;;;;;;;;;;;7.80;1.70;;;;;;5053718;28;19932;-87
2024/02/03 05:56:07;;;;;;;;;;;7.90;6.00;;;;;;5042764;28;19915;-87
2024/02/03 05:59:06;;;;;;;;;;;7.90;6.60;;;;;;5041127;28;19913;-86
2024/02/03 06:05:06;;;;;;;;;;;7.90;4.00;;;;;;5057397;28;20004;-82
2024/02/03 06:07:36;;;;;;;;;;;8.00;1.20;;;;;;5056111;28;19909;-79
2024/02/03 06:10:02;;;;;;;;;;;8.00;3.40;;;;;;5044303;28;19915;-78
2024/02/03 06:13:00;;;;;;;;;;;8.10;1.70;;;;;;5046055;28;19952;-77
2024/02/03 06:15:26;;;;;;;;;;;8.10;1.00;;;;;;5056585;28;19909;-78
2024/02/03 06:18:00;;;;;;;;;;;8.10;1.00;;;;;;5047359;28;19917;-79
2024/02/03 06:20:32;;;;;;;;;;;8.20;1.00;;;;;;5056473;28;19909;-79
2024/02/03 06:22:57;;;;;;;;;;;8.10;1.00;;;;;;5043549;28;20015;-79
2024/02/03 06:25:30;;;;;;;;;;;8.00;1.00;;;;;;5056386;28;19959;-79
2024/02/03 06:28:18;;;;;;;;;;;8.00;1.00;;;;;;5053191;28;19913;-80
2024/02/03 06:30:44;;;;;;;;;;;8.00;1.00;;;;;;5055827;28;19912;-80
2024/02/03 06:33:18;;;;;;;;;;;8.00;1.00;;;;;;5055313;28;20008;-78
2024/02/03 06:36:00;;;;;;;;;;;8.00;1.20;;;;;;5056061;28;19908;-78
2024/02/03 06:38:48;;;;;;;;;;;8.00;1.90;;;;;;5055954;28;20323;-78
2024/02/03 06:41:36;;;;;;;;;;;7.90;2.10;;;;;;5040946;28;19963;-78
2024/02/03 06:44:02;;;;;;;;;;;8.00;1.90;;;;;;5046523;28;19920;-78
2024/02/03 06:46:30;;;;;;;;;;;8.00;1.40;;;;;;5055855;28;20426;-78
2024/02/03 06:49:01;;;;;;;;;;;8.00;1.00;;;;;;5046839;28;19909;-78
2024/02/03 06:51:36;;;;;;;;;;;8.00;1.00;;;;;;5046610;28;19916;-78
2024/02/03 06:54:06;;;;;;;;;;;8.00;1.00;;;;;;5054622;28;19939;-78
2024/02/03 06:56:36;;;;;;;;;;;8.00;1.50;;;;;;5055570;28;19913;-79
2024/02/03 06:59:06;;;;;;;;;;;8.10;1.00;;;;;;5044515;28;19909;-78
2024/02/03 07:01:36;;;;;;;;;;;8.00;1.00;;;;;;5056551;28;19913;-79
2024/02/03 07:04:06;;;;;;;;;;;8.00;1.00;;;;;;5055951;28;19919;-77
2024/02/03 07:06:36;;;;;;;;;;;8.10;1.00;;;;;;5051311;28;19952;-77
2024/02/03 07:09:06;;;;;;;;;;;8.10;1.00;;;;;;5035665;28;19913;-77
2024/02/03 07:11:32;;;;;;;;;;;8.10;1.00;;;;;;5042440;28;19909;-77
2024/02/03 07:14:00;;;;;;;;;;;8.10;1.00;;;;;;5054855;28;19978;-80
2024/02/03 07:16:42;;;;;;;;;;;8.00;1.00;;;;;;5037302;28;19913;-81
2024/02/03 07:19:12;;;;;;;;;;;8.00;1.00;;;;;;5044766;28;19909;-79
2024/02/03 07:21:49;;;;;;;;;;;8.00;1.00;;;;;;5045392;28;19913;-79
2024/02/03 07:24:24;;;;;;;;;;;8.10;1.00;;;;;;5057118;28;19966;-79
2024/02/03 07:26:50;;;;;;;;;;;8.10;1.00;;;;;;5061337;28;20383;-79
2024/02/03 07:29:30;;;;;;;;;;;8.10;1.00;;;;;;5041523;28;19948;-79
2024/02/03 07:32:07;;;;;;;;;;;8.10;1.00;;;;;;5041286;28;19917;-78
2024/02/03 07:35:06;;;;;;;;;;;8.10;1.00;;;;;;5054008;28;19923;-81
2024/02/03 07:37:42;;;;;;;;;;;8.20;1.00;;;;;;5051962;28;19909;-81
2024/02/03 07:40:19;;;;;;;;;;;8.20;1.00;;;;;;5045940;28;19958;-80
2024/02/03 07:43:06;;;;;;;;;;;8.30;1.00;;;;;;5051707;28;19913;-81
2024/02/03 07:45:33;;;;;;;;;;;8.30;1.00;;;;;;5045191;28;19916;-81
2024/02/03 07:47:58;;;;;;;;;;;8.20;1.00;;;;;;5054882;28;19908;-81
2024/02/03 07:50:25;;;;;;;;;;;8.30;1.00;;;;;;5053962;28;20316;-80
2024/02/03 07:52:55;;;;;;;;;;;8.40;1.00;;;;;;5042206;28;19912;-79
2024/02/03 07:55:36;;;;;;;;;;;8.40;1.00;;;;;;5042806;28;19975;-79
2024/02/03 07:58:06;;;;;;;;;;;8.50;1.00;;;;;;5050801;28;20272;-79
2024/02/03 08:00:36;;;;;;;;;;;8.40;1.00;;;;;;5054557;28;20364;-79
2024/02/03 08:03:02;;;;;;;;;;;8.40;1.00;;;;;;5054380;28;19954;-79
2024/02/03 08:05:30;;;;;;;;;;;8.40;1.00;;;;;;5049419;28;20015;-78
2024/02/03 08:08:12;;;;;;;;;;;8.50;1.00;;;;;;5069929;28;19909;-79
2024/02/03 08:11:06;;;;;;;;;;;8.70;1.00;;;;;;5034635;28;19917;-79
2024/02/03 08:13:36;;;;;;;;;;;8.90;1.00;;;;;;5043866;28;19909;-78
2024/02/03 08:16:02;;;;;;;;;;;8.90;1.00;;;;;;5053981;28;19917;-77
2024/02/03 08:18:48;;;;;;;;;;;8.90;1.00;;;;;;5054137;28;19909;-77
2024/02/03 08:21:18;;;;;;;;;;;9.00;1.00;;;;;;5039365;28;19912;-77
2024/02/03 08:23:54;;;;;;;;;;;9.10;1.00;;;;;;5041254;28;19928;-78
2024/02/03 08:26:20;;;;;;;;;;;9.10;1.00;;;;;;5034272;28;19913;-77
2024/02/03 08:28:46;;;;;;;;;;;9.00;1.00;;;;;;5048777;28;19916;-78
2024/02/03 08:31:12;;;;;;;;;;;9.10;1.00;;;;;;5051572;28;19909;-78
2024/02/03 08:34:06;;;;;;;;;;;9.10;1.00;;;;;;5049156;28;19917;-79
2024/02/03 08:36:36;;;;;;;;;;;9.20;1.00;;;;;;5052067;28;20280;-79
2024/02/03 08:39:03;;;;;;;;;;;9.10;1.00;;;;;;5052231;28;19920;-78
2024/02/03 08:44:32;;;;;;;;;;;9.20;1.00;;;;;;5053479;28;20016;-78
2024/02/03 08:46:58;;;;;;;;;;;9.20;1.00;;;;;;5053805;28;19948;-78
2024/02/03 08:49:23;;;;;;;;;;;9.20;1.00;;;;;;5053793;28;19912;-79
2024/02/03 08:51:54;;;;;;;;;;;9.50;1.00;;;;;;5066845;28;19917;-80
2024/02/03 08:54:20;;;;;;;;;;;9.50;1.00;;;;;;5048552;28;19958;-80
2024/02/03 08:56:48;;;;;;;;;;;9.40;1.00;;;;;;5053494;28;19912;-80
2024/02/03 08:59:18;;;;;;;;;;;9.40;1.00;;;;;;5040316;28;20357;-80
2024/02/03 09:01:48;;;;;;;;;;;9.40;1.00;;;;;;5046006;28;19913;-80
2024/02/03 09:04:19;;;;;;;;;;;9.60;1.00;;;;;;5053646;28;19966;-80
2024/02/03 09:06:48;;;;;;;;;;;9.60;1.00;;;;;;5052448;28;19909;-79
2024/02/03 09:09:25;;;;;;;;;;;9.60;1.00;;;;;;5053391;28;19908;-78
2024/02/03 09:11:50;;;;;;;;;;;9.70;1.00;;;;;;5052171;28;19909;-78
2024/02/03 09:14:16;;;;;;;;;;;9.70;1.00;;;;;;5051315;28;19909;-78
2024/02/03 09:16:55;;;;;;;;;;;9.70;1.00;;;;;;5045319;28;19932;-79
2024/02/03 09:19:48;;;;;;;;;;;9.70;1.00;;;;;;5040632;28;19916;-79
2024/02/03 09:22:18;;;;;;;;;;;9.70;1.00;;;;;;5052731;28;19958;-79
2024/02/03 09:24:44;;;;;;;;;;;9.90;1.00;;;;;;5052183;28;19924;-79
2024/02/03 09:27:12;;;;;;;;;;;10.00;1.00;;;;;;5053452;28;19913;-79
2024/02/03 09:29:40;;;;;;;;;;;10.10;1.00;;;;;;5053291;28;19909;-79
2024/02/03 09:32:06;;;;;;;;;;;10.00;1.00;;;;;;5052570;28;19920;-79
2024/02/03 09:35:06;;;;;;;;;;;10.00;1.00;;;;;;5056630;28;19966;-79
2024/02/03 09:37:36;;;;;;;;;;;10.00;1.00;;;;;;5047541;28;19908;-79
2024/02/03 09:40:17;;;;;;;;;;;10.40;1.00;;;;;;5052387;28;19909;-79
2024/02/03 09:42:55;;;;;;;;;;;10.30;1.00;;;;;;5052618;28;19909;-79
2024/02/03 09:45:21;;;;;;;;;;;10.30;1.00;;;;;;5056398;28;19917;-79
2024/02/03 09:48:01;;;;;;;;;;;10.30;1.00;;;;;;5056556;28;19919;-78
2024/02/03 09:50:30;;;;;;;;;;;10.30;1.00;;;;;;5067146;28;19909;-79
2024/02/03 09:53:07;;;;;;;;;;;10.30;1.00;;;;;;5056994;28;19917;-79
2024/02/03 09:55:36;;;;;;;;;;;10.30;1.00;;;;;;5045223;28;19909;-79
2024/02/03 09:58:07;;;;;;;;;;;10.20;1.00;;;;;;5050675;28;19912;-79
2024/02/03 10:03:54;;;;;;;;;;;10.30;1.00;;;;;;5041000;28;20002;-79
2024/02/03 10:06:31;;;;;;;;;;;10.30;1.00;;;;;;5055813;28;19959;-79
2024/02/03 10:11:59;;;;;;;;;;;10.40;1.00;;;;;;5049417;28;19951;-78
2024/02/03 10:14:25;;;;;;;;;;;10.40;1.00;;;;;;5051105;28;19913;-78
2024/02/03 10:16:51;;;;;;;;;;;10.40;1.00;;;;;;5058894;28;20003;-78
2024/02/03 10:19:24;;;;;;;;;;;10.40;1.00;;;;;;5054421;28;19991;-78
2024/02/03 10:21:50;;;;;;;;;;;10.40;1.00;;;;;;5056859;28;20651;-80
2024/02/03 10:24:26;;;;;;;;;;;10.40;1.00;;;;;;5056171;28;19921;-80
2024/02/03 10:27:18;;;;;;;;;;;10.50;1.00;;;;;;5056345;28;19947;-80
2024/02/03 10:29:52;;;;;;;;;;;10.50;1.00;;;;;;5044531;28;19915;-80
2024/02/03 10:32:30;;;;;;;;;;;10.40;1.00;;;;;;5055529;28;20389;-79
2024/02/03 10:35:02;;;;;;;;;;;10.50;1.00;;;;;;5056038;28;19923;-81
2024/02/03 10:37:42;;;;;;;;;;;10.60;1.00;;;;;;5056297;28;19915;-81
2024/02/03 10:40:18;;;;;;;;;;;10.50;1.00;;;;;;5055934;28;19955;-80
2024/02/03 10:42:50;;;;;;;;;;;10.70;1.00;;;;;;5053895;28;19917;-80
2024/02/03 10:45:20;;;;;;;;;;;10.50;1.00;;;;;;5055189;28;19917;-75
2024/02/03 10:47:50;;;;;;;;;;;10.70;1.00;;;;;;5056379;28;19909;-85
2024/02/03 10:50:37;;;;;;;;;;;10.90;1.00;;;;;;5055629;28;20356;-85
2024/02/03 10:53:12;;;;;;;;;;;10.80;1.00;;;;;;5056111;28;19995;-82
2024/02/03 10:56:01;;;;;;;;;;;10.80;1.00;;;;;;5062496;28;20356;-83
2024/02/03 10:58:31;;;;;;;;;;;10.80;1.00;;;;;;5057112;28;19917;-83
2024/02/03 11:01:20;;;;;;;;;;;10.80;1.00;;;;;;5063314;28;19915;-80
2024/02/03 11:04:07;;;;;;;;;;;10.90;1.00;;;;;;5053809;28;19913;-81
2024/02/03 11:06:37;;;;;;;;;;;10.90;1.00;;;;;;5054221;28;19909;-80
2024/02/03 11:09:14;;;;;;;;;;;10.90;1.00;;;;;;5058344;28;19913;-84
2024/02/03 11:12:00;;;;;;;;;;;11.00;1.00;;;;;;5055520;28;19912;-81
2024/02/03 11:14:32;;;;;;;;;;;11.00;1.00;;;;;;5055639;28;19909;-85
2024/02/03 11:17:07;;;;;;;;;;;11.10;1.00;;;;;;5055304;28;20387;-83
2024/02/03 11:19:49;;;;;;;;;;;11.20;1.00;;;;;;5053544;28;19913;-83
2024/02/03 11:22:19;;;;;;;;;;;11.10;1.00;;;;;;5052260;28;19913;-83
2024/02/03 11:24:45;;;;;;;;;;;11.20;1.00;;;;;;5035349;28;19921;-84
2024/02/03 11:27:19;;;;;;;;;;;11.40;1.00;;;;;;5043995;28;19913;-82
2024/02/03 11:29:44;;;;;;;;;;;11.50;1.00;;;;;;5047550;28;19955;-81
2024/02/03 11:32:31;;;;;;;;;;;11.50;1.00;;;;;;5055047;28;19913;-82
2024/02/03 11:38:07;;;;;;;;;;;11.50;1.00;;;;;;5055435;28;19932;-83
2024/02/03 11:41:07;;;;;;;;;;;11.50;1.00;;;;;;5042326;28;19919;-82
2024/02/03 11:43:37;;;;;;;;;;;11.40;1.00;;;;;;5054902;28;19962;-82
2024/02/03 11:46:04;;;;;;;;;;;11.50;1.00;;;;;;5053642;28;19916;-81
2024/02/03 11:48:38;;;;;;;;;;;11.40;1.00;;;;;;5054807;28;19909;-81
2024/02/03 11:51:37;;;;;;;;;;;11.50;1.00;;;;;;5055449;28;19935;-81
2024/02/03 11:54:03;;;;;;;;;;;11.60;1.00;;;;;;5054346;28;19948;-82
2024/02/03 11:56:37;;;;;;;;;;;11.80;1.00;;;;;;5052061;28;19919;-82
2024/02/03 11:59:08;;;;;;;;;;;12.10;1.00;;;;;;5054783;28;19963;-82
2024/02/03 12:02:01;;;;;;;;;;;12.10;1.00;;;;;;5054603;28;20356;-82
2024/02/03 12:04:32;;;;;;;;;;;12.20;1.00;;;;;;5051683;28;19962;-82
2024/02/03 12:07:01;;;;;;;;;;;12.00;1.00;;;;;;5057274;28;19920;-83
2024/02/03 12:09:37;;;;;;;;;;;12.20;1.00;;;;;;5057257;28;19955;-81
2024/02/03 12:12:08;;;;;;;;;;;12.20;1.00;;;;;;5054326;28;19951;-82
2024/02/03 12:14:37;;;;;;;;;;;12.20;1.00;;;;;;5054394;28;20272;-83
2024/02/03 12:17:02;;;;;;;;;;;12.30;1.00;;;;;;5054065;28;20284;-82
2024/02/03 12:19:31;;;;;;;;;;;12.30;1.00;;;;;;5054353;28;19909;-82
2024/02/03 12:22:01;;;;;;;;;;;12.30;1.00;;;;;;5049144;28;19913;-78
2024/02/03 12:24:31;;;;;;;;;;;12.30;1.00;;;;;;5052657;28;20369;-77
2024/02/03 12:27:07;;;;;;;;;;;12.20;1.00;;;;;;5053645;28;20204;-77
2024/02/03 12:29:37;;;;;;;;;;;12.10;1.00;;;;;;5053875;28;19944;-77
2024/02/03 12:32:07;;;;;;;;;;;12.20;1.00;;;;;;5041399;28;19908;-77
2024/02/03 12:34:37;;;;;;;;;;;12.10;1.00;;;;;;5053538;28;20427;-77
2024/02/03 12:37:07;;;;;;;;;;;12.30;1.00;;;;;;5054292;28;19919;-83
2024/02/03 12:39:37;;;;;;;;;;;12.50;1.00;;;;;;5052594;28;19916;-83
2024/02/03 12:42:08;;;;;;;;;;;12.40;1.00;;;;;;5054133;28;19912;-82
2024/02/03 12:44:37;;;;;;;;;;;12.60;1.00;;;;;;5051189;28;19917;-83
2024/02/03 12:47:37;;;;;;;;;;;12.70;1.00;;;;;;5053954;28;19920;-83
2024/02/03 12:50:32;;;;;;;;;;;13.00;1.00;;;;;;5048449;28;19916;-82
2024/02/03 12:53:01;;;;;;;;;;;13.00;1.00;;;;;;5052886;28;19913;-83
2024/02/03 12:55:31;;;;;;;;;;;13.50;1.00;;;;;;5063565;28;19916;-83
2024/02/03 13:03:44;;;;;;;;;;;13.80;1.00;;;;;;5040553;28;19940;-82
2024/02/03 13:06:19;;;;;;;;;;;13.60;1.00;;;;;;5052707;28;19913;-83
2024/02/03 13:08:55;;;;;;;;;;;13.30;1.00;;;;;;5059939;28;19915;-82
2024/02/03 13:11:31;;;;;;;;;;;13.50;1.00;;;;;;5037744;28;20353;-83
2024/02/03 13:13:56;;;;;;;;;;;13.50;1.00;;;;;;5056445;28;19909;-83
2024/02/03 13:16:31;;;;;;;;;;;13.70;1.00;;;;;;5056227;28;19921;-83
2024/02/03 13:18:57;;;;;;;;;;;13.70;1.00;;;;;;5044116;28;20027;-83
2024/02/03 13:21:31;;;;;;;;;;;13.30;1.00;;;;;;5073670;28;20384;-82
2024/02/03 13:23:57;;;;;;;;;;;13.40;1.00;;;;;;5043757;28;19917;-77
2024/02/03 13:26:23;;;;;;;;;;;13.30;1.00;;;;;;5056304;28;19913;-76
2024/02/03 13:28:49;;;;;;;;;;;13.20;1.00;;;;;;5057117;28;19908;-76
2024/02/03 13:31:15;;;;;;;;;;;13.30;1.00;;;;;;5047487;28;19913;-77
2024/02/03 13:33:41;;;;;;;;;;;13.40;1.00;;;;;;5044202;28;19971;-76
2024/02/03 13:36:07;;;;;;;;;;;13.60;1.00;;;;;;5056880;28;20337;-76
2024/02/03 13:39:01;;;;;;;;;;;13.70;1.00;;;;;;5059250;28;20295;-83
2024/02/03 13:41:31;;;;;;;;;;;13.50;1.00;;;;;;5053582;28;19989;-83
2024/02/03 13:44:01;;;;;;;;;;;13.60;1.00;;;;;;5056059;28;19916;-82
2024/02/03 13:46:31;;;;;;;;;;;13.40;1.00;;;;;;5055906;28;19947;-83
2024/02/03 13:49:07;;;;;;;;;;;13.30;1.00;;;;;;5072721;28;19909;-81
2024/02/03 13:52:00;;;;;;;;;;;13.30;1.00;;;;;;5053600;28;19912;-81
2024/02/03 13:54:31;;;;;;;;;;;13.30;1.00;;;;;;5057279;28;19916;-76
2024/02/03 13:57:01;;;;;;;;;;;13.30;1.00;;;;;;5067664;28;19913;-76
2024/02/03 13:59:28;;;;;;;;;;;13.20;1.00;;;;;;5056818;28;20012;-76
2024/02/03 14:01:54;;;;;;;;;;;13.20;1.00;;;;;;5056785;28;19909;-77
2024/02/03 14:04:20;;;;;;;;;;;13.20;1.00;;;;;;5053538;28;19924;-77
2024/02/03 14:06:45;;;;;;;;;;;13.30;1.00;;;;;;5048131;28;19920;-76
2024/02/03 14:09:11;;;;;;;;;;;13.30;1.00;;;;;;5057287;28;19909;-84
2024/02/03 14:12:03;;;;;;;;;;;13.20;1.00;;;;;;5056810;28;19916;-83
2024/02/03 14:14:31;;;;;;;;;;;13.20;1.00;;;;;;5056604;28;20364;-82
2024/02/03 14:17:01;;;;;;;;;;;13.30;1.00;;;;;;5056604;28;19913;-82
2024/02/03 14:19:31;;;;;;;;;;;13.40;1.00;;;;;;5054387;28;19909;-83
2024/02/03 14:22:07;;;;;;;;;;;13.10;1.00;;;;;;5054446;28;19913;-83
2024/02/03 14:24:37;;;;;;;;;;;13.10;1.00;;;;;;5072606;28;19921;-83
2024/02/03 14:27:13;;;;;;;;;;;12.80;1.00;;;;;;5056173;28;19962;-84
2024/02/03 14:30:13;;;;;;;;;;;12.60;1.00;;;;;;5056177;28;19962;-83
2024/02/03 14:32:38;;;;;;;;;;;12.60;1.00;;;;;;5055048;28;19913;-83
2024/02/03 14:38:07;;;;;;;;;;;12.50;1.00;;;;;;5048563;28;19920;-76
2024/02/03 14:40:49;;;;;;;;;;;12.30;1.00;;;;;;5044996;28;19909;-79
2024/02/03 14:43:31;;;;;;;;;;;12.20;1.00;;;;;;5051781;28;19913;-78
2024/02/03 14:46:07;;;;;;;;;;;12.10;1.00;;;;;;5054274;28;19955;-78
2024/02/03 14:48:32;;;;;;;;;;;12.10;1.00;;;;;;5050731;28;19915;-77
2024/02/03 14:50:58;;;;;;;;;;;11.90;1.00;;;;;;5055759;28;19909;-79
2024/02/03 14:53:43;;;;;;;;;;;11.90;1.00;;;;;;5058988;28;19956;-78
2024/02/03 14:56:31;;;;;;;;;;;11.80;1.00;;;;;;5052439;28;19909;-78
2024/02/03 14:58:56;;;;;;;;;;;11.80;1.00;;;;;;5044602;28;19956;-78
2024/02/03 15:01:25;;;;;;;;;;;11.70;1.00;;;;;;5054152;28;19944;-79
2024/02/03 15:04:02;;;;;;;;;;;11.70;1.00;;;;;;5055570;28;19916;-78
2024/02/03 15:06:31;;;;;;;;;;;11.70;1.00;;;;;;5055444;28;19932;-78
2024/02/03 15:09:01;;;;;;;;;;;11.60;1.00;;;;;;5049650;28;19913;-79
2024/02/03 15:11:31;;;;;;;;;;;11.60;1.00;;;;;;5050558;28;19913;-79
2024/02/03 15:14:25;;;;;;;;;;;11.60;1.00;;;;;;5053978;28;20280;-79
2024/02/03 15:17:01;;;;;;;;;;;11.60;1.00;;;;;;5051546;28;19916;-80
2024/02/03 15:19:31;;;;;;;;;;;11.50;1.00;;;;;;5045872;28;19916;-80
2024/02/03 15:21:56;;;;;;;;;;;11.30;1.00;;;;;;5055439;28;20050;-80
2024/02/03 15:24:22;;;;;;;;;;;11.40;1.00;;;;;;5055478;28;19998;-80
2024/02/03 15:27:01;;;;;;;;;;;11.30;1.00;;;;;;5055005;28;19916;-80
2024/02/03 15:29:31;;;;;;;;;;;11.30;1.00;;;;;;5053600;28;19912;-80
2024/02/03 15:32:01;;;;;;;;;;;11.40;1.00;;;;;;5053215;28;19908;-80
2024/02/03 15:34:31;;;;;;;;;;;11.30;1.00;;;;;;5054961;28;19970;-80
2024/02/03 15:37:31;;;;;;;;;;;11.20;1.00;;;;;;5054848;28;20004;-79
2024/02/03 15:39:56;;;;;;;;;;;11.20;1.00;;;;;;5048977;28;19912;-78
2024/02/03 15:42:25;;;;;;;;;;;11.10;1.00;;;;;;5054849;28;20008;-79